Time;durP1;ratioP1;P1;durP2;ratioP2;P2;SDS_P1;SDS_P2;PMS_P1;PMS_P2;Temp;Humidity;BMP_temperature;BMP_pressure;BME280_temperature;BME280_humidity;BME280_pressure;Samples;Min_cycle;Max_cycle;Signal;HPM_P1;HPM_P2
2022/01/14 00:01:33;;;;;;;22.55;10.20;;;;;;;-2.42;59.09;100993.09;5049854;28;20029;-42
2022/01/14 00:03:58;;;;;;;17.33;7.22;;;;;;;-2.51;57.54;100976.22;5050066;28;20025;-43
2022/01/14 00:06:24;;;;;;;27.42;11.32;;;;;;;-2.64;58.77;100972.66;5050169;28;20481;-42
2022/01/14 00:08:49;;;;;;;22.83;10.88;;;;;;;-2.45;57.43;100975.03;5049553;28;20061;-42
2022/01/14 00:11:17;;;;;;;23.20;9.52;;;;;;;-2.48;56.94;100981.25;5049658;28;20032;-42
2022/01/14 00:16:08;;;;;;;23.63;10.63;;;;;;;-2.31;58.29;100987.25;5050033;28;20104;-42
2022/01/14 00:18:33;;;;;;;23.10;9.95;;;;;;;-2.17;57.21;100982.06;5049941;28;20383;-42
2022/01/14 00:21:02;;;;;;;22.48;10.48;;;;;;;-2.02;57.36;100988.13;5049609;28;20025;-42
2022/01/14 00:23:32;;;;;;;21.88;9.63;;;;;;;-2.30;56.55;100984.56;5049635;28;20052;-42
2022/01/14 00:34:06;;;;;;;20.35;9.05;;;;;;;-1.93;57.25;100994.56;5048980;28;20036;-43
2022/01/14 00:36:32;;;;;;;21.30;9.70;;;;;;;-2.04;57.78;100990.81;5049919;28;20029;-42
2022/01/14 00:38:57;;;;;;;23.83;10.43;;;;;;;-1.80;56.82;100990.28;5049423;28;20063;-42
2022/01/14 00:41:22;;;;;;;22.67;10.20;;;;;;;-2.03;57.05;100976.88;5049652;28;20029;-42
2022/01/14 00:43:50;;;;;;;19.02;9.63;;;;;;;-1.87;56.97;100983.75;5049589;28;20392;-42
2022/01/14 00:46:15;;;;;;;23.23;9.95;;;;;;;-1.80;56.98;100977.25;5049501;28;20056;-42
2022/01/14 00:48:41;;;;;;;23.65;9.60;;;;;;;-1.77;55.81;100977.91;5049862;28;20025;-43
2022/01/14 00:51:06;;;;;;;19.98;9.25;;;;;;;-1.58;54.95;100982.84;5049255;28;20036;-42
2022/01/14 00:53:32;;;;;;;22.38;9.73;;;;;;;-1.89;56.87;100988.25;5049414;28;20517;-42
2022/01/14 00:56:20;;;;;;;21.67;9.50;;;;;;;-1.89;57.02;100983.03;5049874;28;20103;-42
2022/01/14 01:01:29;;;;;;;24.52;8.82;;;;;;;-1.77;56.39;100995.34;5050875;28;20027;-43
2022/01/14 01:03:55;;;;;;;18.25;9.55;;;;;;;-1.89;56.65;100991.69;5053366;28;20108;-43
2022/01/14 01:06:20;;;;;;;22.50;9.43;;;;;;;-1.88;56.36;100992.53;5053124;28;20025;-43
2022/01/14 01:08:48;;;;;;;13.68;6.68;;;;;;;-2.29;58.13;100995.84;5052446;28;20053;-43
2022/01/14 01:11:14;;;;;;;21.95;9.82;;;;;;;-1.63;57.81;100997.09;5053004;28;20037;-42
2022/01/14 01:13:47;;;;;;;22.20;9.65;;;;;;;-1.87;57.16;100986.38;5053056;28;20063;-42
2022/01/14 01:16:12;;;;;;;24.30;10.48;;;;;;;-2.17;57.83;100976.84;5052773;28;20033;-43
2022/01/14 01:18:38;;;;;;;21.40;9.60;;;;;;;-2.12;58.63;100979.19;5052614;28;20029;-43
2022/01/14 01:21:03;;;;;;;24.33;10.73;;;;;;;-2.25;58.03;100968.63;5052328;28;20036;-42
2022/01/14 01:23:29;;;;;;;21.83;10.27;;;;;;;-2.04;56.07;100959.53;5052857;28;20437;-42
2022/01/14 01:26:03;;;;;;;22.98;9.65;;;;;;;-2.04;56.70;100971.72;5052787;28;20037;-42
2022/01/14 01:28:29;;;;;;;16.27;8.05;;;;;;;-2.45;56.61;100962.84;5052908;28;20135;-41
2022/01/14 01:33:20;;;;;;;21.73;9.40;;;;;;;-2.15;56.38;100943.72;5052676;28;20033;-42
2022/01/14 01:35:47;;;;;;;22.92;10.07;;;;;;;-2.22;56.77;100939.78;5053238;28;20025;-42
2022/01/14 01:38:16;;;;;;;21.40;9.25;;;;;;;-2.00;56.18;100945.38;5052620;28;20021;-41
2022/01/14 01:40:46;;;;;;;22.60;10.13;;;;;;;-1.92;56.48;100937.09;5052480;28;20575;-41
2022/01/14 01:43:12;;;;;;;;;;;;;;;-1.98;56.34;100930.47;5053067;28;20040;-41
2022/01/14 01:45:37;;;;;;;22.70;9.90;;;;;;;-2.22;56.76;100866.75;5052012;28;19913;-42
2022/01/14 01:48:03;;;;;;;22.60;9.05;;;;;;;-1.91;56.73;100930.09;5052346;28;20025;-42
2022/01/14 01:50:29;;;;;;;24.20;9.80;;;;;;;-1.85;57.06;100938.38;5052564;28;20033;-42
2022/01/14 01:52:55;;;;;;;24.58;10.45;;;;;;;-2.00;57.14;100908.84;5052484;28;20040;-42
2022/01/14 01:55:21;;;;;;;22.40;10.02;;;;;;;-1.85;56.71;100924.50;5052843;28;20032;-42
2022/01/14 01:57:50;;;;;;;22.75;10.40;;;;;;;-1.92;58.46;100931.00;5052549;28;20125;-43
2022/01/14 02:00:18;;;;;;;26.40;11.18;;;;;;;-1.84;57.06;100915.75;5052382;28;20027;-42
2022/01/14 02:02:45;;;;;;;25.73;11.05;;;;;;;-1.86;59.06;100920.22;5051090;28;20033;-42
2022/01/14 02:05:10;;;;;;;24.73;10.65;;;;;;;-1.90;58.64;100916.13;5052158;28;20052;-42
2022/01/14 02:07:36;;;;;;;23.55;10.10;;;;;;;-1.84;58.47;100913.13;5052332;28;20130;-42
2022/01/14 02:10:02;;;;;;;25.73;10.90;;;;;;;-1.54;58.36;100905.16;5050895;28;20644;-42
2022/01/14 02:12:36;;;;;;;24.13;10.75;;;;;;;-1.89;58.46;100902.13;5051747;28;20075;-44
2022/01/14 02:15:25;;;;;;;22.15;10.13;;;;;;;-1.77;58.27;100881.34;5052383;28;20033;-42
2022/01/14 02:23:09;;;;;;;22.88;9.93;;;;;;;-1.85;56.96;100869.69;5051866;28;20503;-42
2022/01/14 02:25:36;;;;;;;25.55;10.95;;;;;;;-1.60;56.24;100872.44;5051663;28;20127;-41
2022/01/14 02:28:10;;;;;;;22.77;10.15;;;;;;;-1.77;56.95;100867.47;5051437;28;20159;-41
2022/01/14 02:30:38;;;;;;;19.38;9.88;;;;;;;-1.49;56.60;100869.13;5051556;28;20025;-42
2022/01/14 02:33:04;;;;;;;23.73;9.20;;;;;;;-1.73;56.14;100848.06;5048910;28;20125;-41
2022/01/14 02:35:30;;;;;;;20.98;10.13;;;;;;;-1.80;55.97;100849.38;5051410;28;20111;-42
2022/01/14 02:37:55;;;;;;;26.15;10.70;;;;;;;-1.73;56.61;100853.28;5051438;28;20423;-42
2022/01/14 02:40:21;;;;;;;28.25;11.40;;;;;;;-1.79;56.16;100858.84;5051116;28;20428;-42
2022/01/14 02:42:49;;;;;;;25.75;10.40;;;;;;;-1.81;56.04;100852.91;5051102;28;20173;-41
2022/01/14 02:45:16;;;;;;;23.67;10.60;;;;;;;-1.45;55.74;100856.72;5051056;28;20485;-41
2022/01/14 02:47:42;;;;;;;21.52;10.05;;;;;;;-1.67;56.86;100844.22;5051429;28;20162;-42
2022/01/14 02:50:09;;;;;;;27.75;10.85;;;;;;;-1.55;56.07;100850.41;5051133;28;20108;-41
2022/01/14 02:52:53;;;;;;;23.83;10.85;;;;;;;-1.74;56.92;100838.53;5051249;28;20017;-43
2022/01/14 02:55:27;;;;;;;20.85;9.98;;;;;;;-1.92;56.54;100831.84;5050913;28;20132;-42
2022/01/14 02:57:53;;;;;;;21.55;9.68;;;;;;;-1.93;56.59;100835.41;5049746;28;20115;-42
2022/01/14 03:00:21;;;;;;;22.75;10.13;;;;;;;-1.88;57.34;100834.19;5051148;28;20027;-43
2022/01/14 03:02:48;;;;;;;21.92;10.48;;;;;;;-1.74;56.55;100832.47;5051041;28;20500;-43
2022/01/14 03:05:18;;;;;;;18.85;7.53;;;;;;;-1.86;56.50;100827.09;5051075;28;20060;-43
2022/01/14 03:07:43;;;;;;;22.35;9.75;;;;;;;-1.86;56.99;100818.44;5050873;28;20052;-43
2022/01/14 03:10:10;;;;;;;22.70;10.15;;;;;;;-1.76;56.29;100809.09;5050931;28;20025;-43
2022/01/14 03:12:36;;;;;;;22.90;9.18;;;;;;;-1.81;57.02;100805.91;5051071;28;20032;-43
2022/01/14 03:15:02;;;;;;;20.23;8.95;;;;;;;-1.82;56.77;100799.03;5051026;28;20025;-42
2022/01/14 03:17:29;;;;;;;21.63;10.10;;;;;;;-1.77;59.54;100795.22;5051158;28;20021;-43
2022/01/14 03:19:54;;;;;;;21.15;7.88;;;;;;;-1.97;56.79;100793.03;5051224;28;20025;-43
2022/01/14 03:22:31;;;;;;;22.08;8.73;;;;;;;-1.97;57.09;100787.81;5050844;28;20025;-43
2022/01/14 03:27:22;;;;;;;15.77;7.78;;;;;;;-1.98;57.48;100773.06;5050788;28;20035;-43
2022/01/14 03:29:48;;;;;;;14.90;6.93;;;;;;;-1.85;57.05;100760.91;5050556;28;20064;-43
2022/01/14 03:32:13;;;;;;;16.92;8.23;;;;;;;-1.69;56.63;100752.94;5050915;28;20064;-42
2022/01/14 03:34:39;;;;;;;19.42;8.10;;;;;;;-1.83;56.93;100760.81;5050600;28;20477;-43
2022/01/14 03:37:05;;;;;;;15.45;7.72;;;;;;;-1.71;56.34;100751.34;5049479;28;20037;-43
2022/01/14 03:39:32;;;;;;;15.82;7.22;;;;;;;-1.53;56.84;100751.94;5050669;28;20109;-43
2022/01/14 03:41:57;;;;;;;14.65;7.05;;;;;;;-1.61;56.65;100745.44;5050523;28;20033;-43
2022/01/14 03:44:23;;;;;;;18.27;7.53;;;;;;;-1.44;55.48;100746.94;5050562;28;20055;-43
2022/01/14 03:46:48;;;;;;;16.77;7.63;;;;;;;-1.36;54.83;100741.22;5050826;28;20029;-42
2022/01/14 03:49:14;;;;;;;21.58;7.05;;;;;;;-1.41;55.19;100733.69;5050732;28;20035;-43
2022/01/14 03:51:41;;;;;;;17.70;8.10;;;;;;;-1.40;55.41;100722.31;5049265;28;20083;-43
2022/01/14 03:54:07;;;;;;;18.48;8.02;;;;;;;-1.40;54.70;100721.47;5050291;28;20047;-42
2022/01/14 03:56:32;;;;;;;19.35;7.43;;;;;;;-1.50;54.81;100734.31;5050632;28;20032;-46
2022/01/14 03:58:58;;;;;;;18.50;8.43;;;;;;;-1.34;54.61;100736.72;5050309;28;20489;-45
2022/01/14 04:01:24;;;;;;;15.93;6.57;;;;;;;-1.38;54.50;100730.88;5050421;28;20021;-43
2022/01/14 04:03:50;;;;;;;18.30;8.15;;;;;;;-1.41;54.62;100722.41;5050435;28;20024;-42
2022/01/14 04:06:16;;;;;;;15.07;7.35;;;;;;;-1.44;54.72;100736.50;5050576;28;20131;-43
2022/01/14 04:08:42;;;;;;;18.15;8.55;;;;;;;-1.17;54.88;100746.03;5050113;28;20119;-42
2022/01/14 04:11:08;;;;;;;15.90;7.80;;;;;;;-1.21;54.30;100732.34;5050304;28;20618;-42
2022/01/14 04:13:43;;;;;;;20.08;7.78;;;;;;;-1.28;55.10;100738.91;5048846;28;20064;-42
2022/01/14 04:16:08;;;;;;;17.52;8.13;;;;;;;-1.28;55.89;100731.09;5050518;28;20029;-42
2022/01/14 04:18:34;;;;;;;17.77;8.38;;;;;;;-1.24;54.58;100729.09;5050698;28;20039;-43
2022/01/14 04:21:00;;;;;;;16.10;7.53;;;;;;;-1.36;55.71;100722.94;5050122;28;20029;-42
2022/01/14 04:23:25;;;;;;;21.88;9.68;;;;;;;-1.29;56.66;100729.44;5049762;28;20019;-43
2022/01/14 04:25:52;;;;;;;21.50;9.57;;;;;;;-1.16;56.31;100728.59;5050280;28;20045;-43
2022/01/14 04:28:18;;;;;;;22.60;8.93;;;;;;;-1.20;55.49;100734.03;5050172;28;20033;-43
2022/01/14 04:30:44;;;;;;;20.10;9.10;;;;;;;-1.35;55.63;100723.75;5049648;28;20040;-42
2022/01/14 04:33:10;;;;;;;25.70;9.80;;;;;;;-1.65;56.36;100711.81;5049738;28;20125;-41
2022/01/14 04:35:35;;;;;;;18.00;8.77;;;;;;;-1.55;56.07;100725.09;5051289;28;20024;-42
2022/01/14 04:38:01;;;;;;;20.73;8.48;;;;;;;-1.39;56.28;100712.69;5053567;28;20043;-42
2022/01/14 04:40:26;;;;;;;27.27;9.55;;;;;;;-1.55;56.58;100709.44;5053544;28;20652;-42
2022/01/14 04:42:53;;;;;;;20.77;9.05;;;;;;;-1.69;57.33;100700.75;5051987;28;20134;-42
2022/01/14 04:48:07;;;;;;;19.73;8.45;;;;;;;-1.64;57.39;100706.50;5053270;28;20028;-42
2022/01/14 04:50:32;;;;;;;17.55;8.75;;;;;;;-1.65;58.67;100697.00;5051741;28;20032;-43
2022/01/14 04:52:58;;;;;;;21.65;9.52;;;;;;;-1.63;58.67;100702.13;5052847;28;20041;-42
2022/01/14 04:55:26;;;;;;;19.67;8.63;;;;;;;-0.70;79.88;100694.09;5052134;28;20033;-42
2022/01/14 04:57:52;;;;;;;19.80;8.68;;;;;;;2.25;57.84;100697.88;5049464;28;20033;-47
2022/01/14 05:00:21;;;;;;;20.92;9.90;;;;;;;1.89;52.82;100686.78;5050332;28;20040;-48
2022/01/14 05:02:46;;;;;;;18.10;9.50;;;;;;;1.01;53.20;100698.09;5051914;28;20036;-49
2022/01/14 05:05:12;;;;;;;18.00;8.52;;;;;;;-0.15;53.38;100703.22;5052451;28;20024;-48
2022/01/14 05:07:38;;;;;;;23.10;9.52;;;;;;;-0.59;55.75;100702.00;5051956;28;20063;-52
2022/01/14 05:12:34;;;;;;;21.50;10.20;;;;;;;-1.25;57.37;100701.34;5052027;28;20258;-50
2022/01/14 05:14:59;;;;;;;25.17;10.65;;;;;;;-1.24;58.00;100706.47;5050154;28;20534;-48
2022/01/14 05:17:25;;;;;;;20.45;7.97;;;;;;;-1.32;58.56;100713.13;5050259;28;20040;-48
2022/01/14 05:19:50;;;;;;;20.23;9.18;;;;;;;-1.52;57.84;100704.84;5049911;28;20028;-50
2022/01/14 05:22:17;;;;;;;19.17;8.82;;;;;;;-1.60;57.64;100709.72;5050003;28;20032;-51
2022/01/14 05:24:43;;;;;;;20.80;9.18;;;;;;;-1.63;59.16;100704.72;5048684;28;20464;-48
2022/01/14 05:27:08;;;;;;;20.98;8.93;;;;;;;-1.29;59.19;100713.75;5046960;28;20028;-49
2022/01/14 05:29:34;;;;;;;12.82;7.25;;;;;;;-1.69;58.97;100708.56;5048305;28;20035;-50
2022/01/14 05:32:03;;;;;;;18.63;9.18;;;;;;;-1.52;59.40;100698.78;5050539;28;20090;-50
2022/01/14 05:34:32;;;;;;;20.80;9.65;;;;;;;-1.57;58.45;100686.88;5050721;28;20064;-51
2022/01/14 05:36:58;;;;;;;15.73;7.53;;;;;;;-1.46;56.65;100680.13;5032859;28;20052;-51
2022/01/14 05:39:24;;;;;;;19.48;8.73;;;;;;;-1.37;57.26;100684.72;5051925;28;20139;-52
2022/01/14 05:41:50;;;;;;;21.30;9.30;;;;;;;-1.15;56.83;100683.25;5046178;28;20052;-49
2022/01/14 05:44:15;;;;;;;18.77;8.80;;;;;;;-1.15;57.78;100681.47;5043973;28;20057;-48
2022/01/14 05:46:41;;;;;;;18.45;8.02;;;;;;;-1.17;56.10;100691.19;5032456;28;20021;-51
2022/01/14 05:49:06;;;;;;;18.13;7.80;;;;;;;-1.38;56.86;100667.38;5051710;28;20025;-51
2022/01/14 05:51:32;;;;;;;21.13;8.90;;;;;;;-1.45;57.57;100658.25;5051267;28;20044;-49
2022/01/14 05:53:57;;;;;;;20.42;8.82;;;;;;;-1.06;56.46;100651.28;5051022;28;20032;-51
2022/01/14 05:56:23;;;;;;;24.33;9.63;;;;;;;-0.96;63.45;100644.44;5051440;28;20045;-49
2022/01/14 05:58:48;;;;;;;16.13;7.55;;;;;;;-1.10;55.62;100639.38;5050652;28;20029;-50
2022/01/14 06:01:14;;;;;;;13.73;6.70;;;;;;;-1.10;55.27;100644.59;5050210;28;20021;-51
2022/01/14 06:03:39;;;;;;;16.48;7.40;;;;;;;-1.04;54.89;100628.47;5051174;28;20167;-49
2022/01/14 06:06:05;;;;;;;26.38;10.40;;;;;;;-1.13;55.79;100610.84;5051298;28;20032;-51
2022/01/14 06:08:30;;;;;;;17.40;7.40;;;;;;;-0.69;54.96;100612.09;5050779;28;20056;-47
2022/01/14 06:10:56;;;;;;;19.38;7.72;;;;;;;-0.48;54.26;100617.56;5050985;28;20047;-48
2022/01/14 06:13:21;;;;;;;17.40;6.78;;;;;;;-0.62;54.41;100611.53;5050934;28;20097;-48
2022/01/14 06:15:46;;;;;;;16.98;8.07;;;;;;;-0.16;54.09;100609.97;5051248;28;20024;-48
2022/01/14 06:18:12;;;;;;;15.38;6.53;;;;;;;-0.20;53.00;100611.16;5051408;28;20021;-48
2022/01/14 06:20:37;;;;;;;10.68;6.25;;;;;;;0.03;52.28;100622.53;5050886;28;20021;-48
2022/01/14 06:23:03;;;;;;;16.20;6.05;;;;;;;0.12;52.69;100613.16;5051221;28;20087;-51
2022/01/14 06:25:28;;;;;;;12.93;5.95;;;;;;;0.30;51.38;100608.31;5051000;28;20032;-49
2022/01/14 06:27:54;;;;;;;14.57;6.20;;;;;;;0.44;51.25;100604.66;5050288;28;20500;-51
2022/01/14 06:30:19;;;;;;;13.05;6.53;;;;;;;0.43;50.70;100564.53;5050527;28;20025;-50
2022/01/14 06:32:45;;;;;;;15.20;7.82;;;;;;;0.67;50.47;100592.44;5050247;28;20104;-51
2022/01/14 06:35:11;;;;;;;11.02;5.75;;;;;;;0.75;49.68;100592.66;5050703;28;20025;-51
2022/01/14 06:37:37;;;;;;;10.93;5.25;;;;;;;1.19;49.99;100606.69;5050459;28;20052;-49
2022/01/14 06:40:03;;;;;;;12.45;6.45;;;;;;;1.43;49.01;100580.28;5050304;28;20055;-50
2022/01/14 06:42:29;;;;;;;9.23;5.20;;;;;;;1.41;47.32;100570.84;5050156;28;20021;-51
2022/01/14 06:44:54;;;;;;;13.32;5.85;;;;;;;1.61;50.53;100577.94;5050096;28;20017;-52
2022/01/14 06:47:21;;;;;;;11.88;4.78;;;;;;;1.33;48.47;100585.44;5050312;28;20025;-49
2022/01/14 06:49:47;;;;;;;11.73;5.38;;;;;;;1.59;47.73;100573.78;5050185;28;20025;-49
2022/01/14 06:52:12;;;;;;;12.13;5.38;;;;;;;1.96;47.06;100576.84;5045871;28;20028;-51
2022/01/14 06:54:38;;;;;;;18.83;8.48;;;;;;;1.83;47.39;100570.94;5049975;28;20098;-49
2022/01/14 06:57:04;;;;;;;7.38;4.47;;;;;;;1.98;46.96;100572.31;5050137;28;20029;-38
2022/01/14 06:59:29;;;;;;;14.27;6.25;;;;;;;2.34;46.71;100581.53;5049198;28;20127;-38
2022/01/14 07:01:55;;;;;;;12.38;6.18;;;;;;;2.24;47.97;100585.88;5049952;28;20025;-38
2022/01/14 07:04:20;;;;;;;13.57;6.15;;;;;;;2.25;47.70;100591.97;5038224;28;20032;-38
2022/01/14 07:06:46;;;;;;;12.73;5.85;;;;;;;2.23;46.33;100583.38;5030329;28;20099;-38
2022/01/14 07:09:11;;;;;;;13.35;6.38;;;;;;;2.44;46.58;100601.78;5030308;28;20456;-38
2022/01/14 07:11:37;;;;;;;16.35;6.63;;;;;;;2.56;47.72;100595.47;5034228;28;20034;-38
2022/01/14 07:14:04;;;;;;;13.98;6.65;;;;;;;2.97;45.55;100588.44;5037644;28;20481;-38
2022/01/14 07:16:29;;;;;;;13.70;6.30;;;;;;;3.04;47.58;100597.44;5049210;28;20025;-38
2022/01/14 07:18:55;;;;;;;15.02;6.53;;;;;;;3.17;46.08;100601.66;5047448;28;20031;-38
2022/01/14 07:21:20;;;;;;;12.10;5.43;;;;;;;2.97;45.19;100598.97;5041424;28;20029;-38
2022/01/14 07:23:46;;;;;;;12.80;6.47;;;;;;;2.89;45.16;100583.84;5047146;28;20393;-38
2022/01/14 07:26:11;;;;;;;11.38;5.75;;;;;;;2.84;45.27;100567.63;5048584;28;20021;-38
2022/01/14 07:28:36;;;;;;;13.82;6.72;;;;;;;3.08;46.87;100574.34;5048425;28;20035;-38
2022/01/14 07:31:02;;;;;;;13.00;5.47;;;;;;;3.23;44.84;100554.56;5046929;28;20128;-38
2022/01/14 07:33:27;;;;;;;14.75;6.15;;;;;;;3.60;44.22;100553.94;5048787;28;20021;-38
2022/01/14 07:35:53;;;;;;;13.00;6.50;;;;;;;3.61;43.77;100538.97;5048464;28;20025;-39
2022/01/14 07:38:18;;;;;;;13.15;7.00;;;;;;;3.47;44.51;100561.28;5048412;28;20025;-38
2022/01/14 07:40:44;;;;;;;16.40;6.40;;;;;;;3.61;44.65;100538.97;5048390;28;20025;-39
2022/01/14 07:43:09;;;;;;;15.45;6.78;;;;;;;3.36;44.38;100541.16;5048346;28;20421;-38
2022/01/14 07:45:35;;;;;;;14.68;7.40;;;;;;;3.88;43.74;100540.88;5048137;28;20037;-38
2022/01/14 07:48:00;;;;;;;13.80;6.85;;;;;;;3.70;43.60;100549.50;5048200;28;20520;-38
2022/01/14 07:50:26;;;;;;;14.75;6.90;;;;;;;3.87;43.75;100545.31;5042710;28;20026;-39
2022/01/14 07:52:51;;;;;;;12.85;6.57;;;;;;;3.88;43.92;100536.47;5042479;28;20107;-37
2022/01/14 07:55:16;;;;;;;13.50;6.97;;;;;;;3.68;44.46;100522.47;5049262;28;20021;-37
2022/01/14 07:57:42;;;;;;;12.68;6.72;;;;;;;3.89;44.17;100518.84;5049400;28;20518;-37
2022/01/14 08:00:08;;;;;;;11.90;6.38;;;;;;;4.03;43.93;100499.13;5049116;28;20029;-49
2022/01/14 08:02:33;;;;;;;12.27;6.32;;;;;;;4.16;43.87;100490.94;5047010;28;20017;-51
2022/01/14 08:04:59;;;;;;;13.57;6.32;;;;;;;4.13;43.92;100499.94;5023424;28;20032;-49
2022/01/14 08:07:27;;;;;;;13.65;6.47;;;;;;;3.80;44.60;100499.44;5027770;28;20060;-51
2022/01/14 08:09:53;;;;;;;12.60;5.90;;;;;;;4.19;44.68;100491.47;5027502;28;20040;-52
2022/01/14 08:12:18;;;;;;;12.30;5.72;;;;;;;4.58;43.63;100495.75;5029027;28;20021;-52
2022/01/14 08:14:44;;;;;;;10.88;5.70;;;;;;;4.93;42.98;100487.09;5029214;28;20022;-50
2022/01/14 08:17:11;;;;;;;13.00;5.47;;;;;;;5.02;42.50;100491.47;5029148;28;20028;-51
2022/01/14 08:19:37;;;;;;;12.35;5.57;;;;;;;5.38;42.82;100493.31;5030058;28;20113;-50
2022/01/14 08:22:04;;;;;;;14.02;6.18;;;;;;;5.27;41.98;100481.16;5048441;28;20040;-51
2022/01/14 08:24:29;;;;;;;11.48;6.20;;;;;;;5.75;42.10;100473.78;5047159;28;20016;-52
2022/01/14 08:26:55;;;;;;;12.57;6.13;;;;;;;5.63;41.53;100467.94;5047007;28;20029;-50
2022/01/14 08:29:21;;;;;;;11.20;5.65;;;;;;;4.88;42.98;100458.53;5048299;28;20017;-49
2022/01/14 08:31:46;;;;;;;11.60;6.05;;;;;;;4.82;43.23;100450.38;5048477;28;20053;-51
2022/01/14 08:34:12;;;;;;;10.18;5.55;;;;;;;5.26;42.91;100459.22;5048512;28;20515;-50
2022/01/14 08:36:37;;;;;;;13.77;6.53;;;;;;;5.61;43.35;100457.50;5048639;28;20029;-50
2022/01/14 08:39:03;;;;;;;15.60;6.13;;;;;;;5.16;43.49;100471.66;5048055;28;20052;-50
2022/01/14 08:41:30;;;;;;;11.73;6.00;;;;;;;5.22;43.65;100473.69;5048404;28;20385;-50
2022/01/14 08:43:57;;;;;;;13.32;6.53;;;;;;;5.65;43.49;100469.44;5045951;28;20027;-51
2022/01/14 08:46:23;;;;;;;11.60;6.00;;;;;;;5.32;42.91;100465.69;5048580;28;20032;-50
2022/01/14 08:48:48;;;;;;;12.35;6.70;;;;;;;5.32;43.68;100460.41;5048075;28;20619;-49
2022/01/14 08:51:14;;;;;;;15.35;7.35;;;;;;;5.45;43.91;100460.88;5048643;28;20028;-50
2022/01/14 08:53:39;;;;;;;14.18;7.55;;;;;;;5.25;43.76;100454.09;5047939;28;20440;-51
2022/01/14 08:56:05;;;;;;;15.48;7.93;;;;;;;5.12;44.41;100443.06;5048256;28;20037;-50
2022/01/14 08:58:30;;;;;;;17.25;7.55;;;;;;;5.29;44.62;100445.72;5048480;28;20024;-50
2022/01/14 09:00:56;;;;;;;15.73;7.72;;;;;;;5.48;44.82;100447.38;5048266;28;20025;-48
2022/01/14 09:03:22;;;;;;;17.35;8.27;;;;;;;5.69;44.20;100438.25;5048261;28;20576;-50
2022/01/14 09:05:47;;;;;;;15.95;7.45;;;;;;;5.78;43.78;100423.31;5048689;28;20652;-48
2022/01/14 09:08:12;;;;;;;14.20;6.90;;;;;;;5.26;44.79;100432.00;5048460;28;20072;-50
2022/01/14 09:10:39;;;;;;;15.07;7.55;;;;;;;5.71;44.81;100425.72;5048560;28;20025;-48
2022/01/14 09:13:04;;;;;;;14.20;7.90;;;;;;;5.55;45.16;100417.72;5048864;28;20021;-50
2022/01/14 09:15:30;;;;;;;14.07;7.28;;;;;;;5.86;44.67;100402.22;5048452;28;20412;-50
2022/01/14 09:17:55;;;;;;;17.35;7.60;;;;;;;5.48;45.05;100389.28;5048590;28;20087;-49
2022/01/14 09:20:21;;;;;;;14.52;8.10;;;;;;;5.57;45.62;100376.94;5048125;28;20032;-49
2022/01/14 09:22:51;;;;;;;15.90;7.55;;;;;;;5.60;45.96;100376.66;5050411;28;20021;-50
2022/01/14 09:25:19;;;;;;;15.20;6.28;;;;;;;5.45;46.51;100368.47;5052117;28;20041;-52
2022/01/14 09:27:47;;;;;;;13.68;7.35;;;;;;;5.53;47.62;100362.41;5052003;28;20060;-50
2022/01/14 09:30:12;;;;;;;16.52;7.13;;;;;;;5.61;47.74;100353.72;5052002;28;20693;-50
2022/01/14 09:32:38;;;;;;;13.30;6.95;;;;;;;5.36;48.47;100353.56;5051638;28;20032;-49
2022/01/14 09:35:06;;;;;;;14.48;8.02;;;;;;;5.26;48.89;100350.19;5051424;28;20021;-49
2022/01/14 09:37:31;;;;;;;12.45;7.10;;;;;;;5.35;49.49;100333.44;5051637;28;20017;-49
2022/01/14 09:39:57;;;;;;;20.08;7.80;;;;;;;5.47;49.46;100332.19;5051459;28;20031;-38
2022/01/14 09:42:22;;;;;;;10.98;6.35;;;;;;;5.32;50.39;100327.63;5052122;28;20420;-38
2022/01/14 09:44:48;;;;;;;13.75;7.68;;;;;;;5.81;50.35;100320.81;5051842;28;20020;-38
2022/01/14 09:47:20;;;;;;;17.13;8.40;;;;;;;6.06;49.48;100319.13;5046863;28;20539;-38
2022/01/14 09:49:45;;;;;;;15.55;8.30;;;;;;;5.76;50.66;100312.53;5049436;28;20752;-38
2022/01/14 09:52:12;;;;;;;14.90;7.80;;;;;;;5.86;48.51;100315.88;5051339;28;20042;-38
2022/01/14 09:54:37;;;;;;;15.52;8.30;;;;;;;5.71;49.67;100312.16;5051770;28;20040;-39
2022/01/14 09:57:03;;;;;;;12.57;6.97;;;;;;;5.55;48.82;100307.63;5055881;28;20027;-38
2022/01/14 09:59:29;;;;;;;14.75;8.30;;;;;;;5.48;49.16;100294.25;5071634;28;20399;-40
2022/01/14 10:01:54;;;;;;;16.95;8.68;;;;;;;6.12;48.06;100298.34;5070205;28;20029;-39
2022/01/14 10:04:21;;;;;;;16.98;7.68;;;;;;;6.10;47.85;100284.47;5063809;28;20017;-39
2022/01/14 10:06:51;;;;;;;17.40;7.25;;;;;;;6.13;48.08;100274.41;5032640;28;20112;-38
2022/01/14 10:09:22;;;;;;;16.48;7.75;;;;;;;6.26;47.59;100274.75;5050855;28;20029;-38
2022/01/14 10:12:13;;;;;;;15.02;7.93;;;;;;;6.12;47.66;100270.09;5048507;28;20056;-38
2022/01/14 10:14:45;;;;;;;14.32;7.28;;;;;;;5.80;48.86;100273.41;5049645;28;20048;-38
2022/01/14 10:17:11;;;;;;;13.73;7.22;;;;;;;5.93;49.06;100257.94;5050645;28;20129;-38
2022/01/14 10:19:41;;;;;;;15.18;7.38;;;;;;;5.81;48.52;100256.59;5050465;28;20445;-38
2022/01/14 10:22:19;;;;;;;14.23;7.50;;;;;;;6.02;48.44;100267.59;5050282;28;20033;-38
2022/01/14 10:25:03;;;;;;;13.48;7.65;;;;;;;5.97;48.62;100253.19;5050731;28;20017;-39
2022/01/14 10:27:45;;;;;;;13.20;7.25;;;;;;;6.42;48.32;100247.50;5051288;28;20029;-38
2022/01/14 10:30:12;;;;;;;13.65;7.85;;;;;;;6.48;48.17;100238.09;5050495;28;20069;-38
2022/01/14 10:32:38;;;;;;;16.27;7.80;;;;;;;6.52;49.13;100242.06;5050490;28;20097;-38
2022/01/14 10:35:08;;;;;;;14.98;7.55;;;;;;;6.60;49.63;100230.66;5050427;28;20025;-39
2022/01/14 10:37:34;;;;;;;14.93;7.40;;;;;;;6.51;49.90;100229.00;5048017;28;20513;-38
2022/01/14 10:39:59;;;;;;;14.02;7.55;;;;;;;6.51;50.67;100226.34;5049983;28;20112;-38
2022/01/14 10:42:33;;;;;;;13.20;6.95;;;;;;;6.53;51.62;100217.28;5050472;28;20025;-38
2022/01/14 10:45:21;;;;;;;16.20;6.97;;;;;;;6.62;51.08;100208.31;5050026;28;20446;-38
2022/01/14 10:47:54;;;;;;;12.93;7.10;;;;;;;6.49;51.88;100200.06;5047596;28;20025;-38
2022/01/14 10:50:26;;;;;;;13.27;6.97;;;;;;;7.00;52.60;100186.63;5049810;28;20165;-38
2022/01/14 10:52:51;;;;;;;11.93;7.00;;;;;;;7.41;50.88;100187.31;5050398;28;20040;-38
2022/01/14 10:55:34;;;;;;;10.65;6.25;;;;;;;7.79;50.55;100184.00;5050637;28;20029;-37
2022/01/14 10:58:04;;;;;;;13.60;6.38;;;;;;;7.62;50.75;100184.06;5049293;28;20059;-38
2022/01/14 11:00:37;;;;;;;;;;;;;;;7.92;50.63;100170.16;5049890;28;20060;-37
2022/01/14 11:03:02;;;;;;;10.32;5.95;;;;;;;7.61;50.95;100171.00;5050515;28;19968;-38
2022/01/14 11:05:28;;;;;;;9.48;5.80;;;;;;;7.18;51.88;100159.94;5049950;28;20021;-38
2022/01/14 11:07:54;;;;;;;12.70;5.97;;;;;;;7.08;51.81;100151.34;5049950;28;20089;-38
2022/01/14 11:10:27;;;;;;;12.25;6.30;;;;;;;7.10;51.93;100150.22;5050009;28;20082;-38
2022/01/14 11:12:57;;;;;;;10.25;6.22;;;;;;;7.17;51.89;100145.03;5049715;28;20060;-38
2022/01/14 11:15:23;;;;;;;11.20;6.05;;;;;;;7.47;51.32;100161.16;5049898;28;20032;-38
2022/01/14 11:17:51;;;;;;;11.02;5.65;;;;;;;7.61;50.07;100134.72;5048637;28;20068;-39
2022/01/14 11:20:28;;;;;;;9.63;5.78;;;;;;;7.50;50.55;100143.09;5049476;28;20036;-38
2022/01/14 11:25:41;;;;;;;10.70;5.85;;;;;;;7.35;51.28;100124.47;5048467;28;20075;-38
2022/01/14 11:28:06;;;;;;;10.43;5.88;;;;;;;7.29;52.39;100111.91;5045635;28;20044;-38
2022/01/14 11:30:39;;;;;;;13.35;6.40;;;;;;;7.11;52.40;100111.34;5048347;28;20021;-37
2022/01/14 11:33:06;;;;;;;12.20;6.55;;;;;;;7.29;52.21;100108.44;5050249;28;20051;-37
2022/01/14 11:35:33;;;;;;;13.27;5.97;;;;;;;7.22;52.00;100095.88;5048916;28;20025;-38
2022/01/14 11:38:00;;;;;;;11.60;6.18;;;;;;;7.27;52.48;100103.28;5049951;28;20435;-37
2022/01/14 11:40:25;;;;;;;15.90;7.00;;;;;;;7.62;51.58;100099.31;5046012;28;20035;-38
2022/01/14 11:42:58;;;;;;;8.85;5.65;;;;;;;7.28;51.75;100097.03;5042497;28;20582;-38
2022/01/14 11:45:39;;;;;;;10.40;6.20;;;;;;;7.59;51.16;100081.09;5028850;28;20083;-38
2022/01/14 11:48:05;;;;;;;10.10;6.18;;;;;;;7.56;51.52;100093.91;5030010;28;20041;-38
2022/01/14 11:50:30;;;;;;;12.73;6.47;;;;;;;7.73;50.70;100091.94;5029954;28;20492;-38
2022/01/14 11:52:58;;;;;;;13.65;6.43;;;;;;;7.68;51.48;100096.97;5029638;28;20025;-38